createdAt,value
2018-02-23T00:00:18.795Z,100755
2018-02-23T00:01:24.346Z,100752
2018-02-23T00:02:29.851Z,100752
2018-02-23T00:03:35.581Z,100752
2018-02-23T00:04:40.451Z,100740
2018-02-23T00:05:45.634Z,100746
2018-02-23T00:06:51.377Z,100746
2018-02-23T00:07:56.574Z,100749
2018-02-23T00:09:01.471Z,100746
2018-02-23T00:10:07.189Z,100740
2018-02-23T00:11:12.132Z,100746
2018-02-23T00:12:17.637Z,100737
2018-02-23T00:13:23.405Z,100743
2018-02-23T00:14:28.595Z,100743
2018-02-23T00:15:34.251Z,100737
2018-02-23T00:16:38.909Z,100740
2018-02-23T00:17:44.151Z,100746
2018-02-23T00:18:50.243Z,100749
2018-02-23T00:19:55.735Z,100749
2018-02-23T00:21:01.220Z,100740
2018-02-23T00:22:07.114Z,100740
2018-02-23T00:23:12.600Z,100743
2018-02-23T00:24:17.526Z,100734
2018-02-23T00:25:23.361Z,100737
2018-02-23T00:26:28.844Z,100743
2018-02-23T00:27:34.900Z,100740
2018-02-23T00:28:39.809Z,100740
2018-02-23T00:29:45.042Z,100723
2018-02-23T00:30:50.585Z,100729
2018-02-23T00:31:55.781Z,100729
2018-02-23T00:33:01.265Z,100729
2018-02-23T00:34:06.736Z,100726
2018-02-23T00:35:11.924Z,100729
2018-02-23T00:36:17.390Z,100729
2018-02-23T00:37:22.286Z,100729
2018-02-23T00:38:27.762Z,100734
2018-02-23T00:39:33.131Z,100729
2018-02-23T00:40:38.394Z,100734
2018-02-23T00:41:43.902Z,100732
2018-02-23T00:42:49.528Z,100737
2018-02-23T00:43:54.716Z,100734
2018-02-23T00:45:00.279Z,100740
2018-02-23T00:46:05.472Z,100731
2018-02-23T00:47:10.375Z,100740
2018-02-23T00:48:15.602Z,100731
2018-02-23T00:49:21.330Z,100749
2018-02-23T00:50:26.798Z,100743
2018-02-23T00:51:32.120Z,100743
2018-02-23T00:52:37.306Z,100743
2018-02-23T00:53:42.799Z,100746
2018-02-23T00:54:48.374Z,100740
2018-02-23T00:55:53.562Z,100740
2018-02-23T00:56:59.057Z,100729
2018-02-23T00:58:04.505Z,100737
2018-02-23T00:59:09.701Z,100723
2018-02-23T01:00:15.307Z,100731
2018-02-23T01:01:21.100Z,100749
2018-02-23T01:02:26.581Z,100737
2018-02-23T01:03:32.662Z,100746
2018-02-23T01:04:38.186Z,100737
2018-02-23T01:05:43.392Z,100734
2018-02-23T01:06:49.267Z,100743
2018-02-23T01:07:54.728Z,100740
2018-02-23T01:09:00.238Z,100729
2018-02-23T01:10:05.395Z,100729
2018-02-23T01:11:10.842Z,100734
2018-02-23T01:12:16.322Z,100729
2018-02-23T01:13:21.941Z,100729
2018-02-23T01:14:27.434Z,100729
2018-02-23T01:15:33.038Z,100732
2018-02-23T01:16:38.537Z,100732
2018-02-23T01:17:44.026Z,100720
2018-02-23T01:18:50.041Z,100732
2018-02-23T01:19:55.746Z,100740
2018-02-23T01:21:01.213Z,100729
2018-02-23T01:22:06.406Z,100732
2018-02-23T01:23:11.892Z,100729
2018-02-23T01:24:17.408Z,100726
2018-02-23T01:25:23.140Z,100729
2018-02-23T01:26:28.639Z,100726
2018-02-23T01:27:34.285Z,100723
2018-02-23T01:28:39.473Z,100729
2018-02-23T01:29:44.413Z,100734
2018-02-23T01:30:50.386Z,100732
2018-02-23T01:31:55.875Z,100723
2018-02-23T01:33:01.326Z,100726
2018-02-23T01:34:06.974Z,100723
2018-02-23T01:35:12.442Z,100729
2018-02-23T01:36:17.648Z,100723
2018-02-23T01:37:23.360Z,100732
2018-02-23T01:38:28.866Z,100723
2018-02-23T01:39:34.230Z,100717
2018-02-23T01:40:39.416Z,100720
2018-02-23T01:41:44.053Z,100714
2018-02-23T01:42:49.838Z,100717
2018-02-23T01:43:55.028Z,100708
2018-02-23T01:45:00.520Z,100711
2018-02-23T01:46:05.725Z,100714
2018-02-23T01:47:11.200Z,100711
2018-02-23T01:48:16.674Z,100714
2018-02-23T01:49:22.232Z,100708
2018-02-23T01:50:27.719Z,100714
2018-02-23T01:51:33.675Z,100726
2018-02-23T01:52:38.014Z,100717
2018-02-23T01:53:43.203Z,100723
2018-02-23T01:54:48.859Z,100723
2018-02-23T01:55:54.052Z,100723
2018-02-23T01:56:59.529Z,100705
2018-02-23T01:58:05.467Z,100717
2018-02-23T01:59:10.972Z,100714
2018-02-23T02:00:16.454Z,100723
2018-02-23T02:01:22.027Z,100726
2018-02-23T02:02:27.220Z,100714
2018-02-23T02:03:33.110Z,100717
2018-02-23T02:04:38.574Z,100717
2018-02-23T02:05:43.501Z,100717
2018-02-23T02:06:49.259Z,100708
2018-02-23T02:07:54.739Z,100726
2018-02-23T02:08:59.944Z,100717
2018-02-23T02:10:05.382Z,100708
2018-02-23T02:11:10.856Z,100708
2018-02-23T02:12:16.333Z,100720
2018-02-23T02:13:21.786Z,100702
2018-02-23T02:14:27.259Z,100714
2018-02-23T02:15:33.086Z,100700
2018-02-23T02:16:37.995Z,100717
2018-02-23T02:17:43.202Z,100711
2018-02-23T02:18:49.337Z,100711
2018-02-23T02:19:53.981Z,100705
2018-02-23T02:20:59.179Z,100694
2018-02-23T02:22:05.117Z,100711
2018-02-23T02:23:10.592Z,100711
2018-02-23T02:24:16.062Z,100711
2018-02-23T02:25:21.265Z,100705
2018-02-23T02:26:26.205Z,100720
2018-02-23T02:27:32.142Z,100708
2018-02-23T02:28:37.625Z,100702
2018-02-23T02:29:42.244Z,100705
2018-02-23T02:30:47.867Z,100705
2018-02-23T02:31:53.051Z,100705
2018-02-23T02:32:58.220Z,100705
2018-02-23T02:34:03.687Z,100694
2018-02-23T02:35:09.169Z,100708
2018-02-23T02:36:14.674Z,100691
2018-02-23T02:37:20.424Z,100697
2018-02-23T02:38:25.911Z,100705
2018-02-23T02:39:31.628Z,100697
2018-02-23T02:40:37.120Z,100697
2018-02-23T02:41:42.599Z,100705
2018-02-23T02:42:48.449Z,100688
2018-02-23T02:43:53.927Z,100691
2018-02-23T02:44:59.400Z,100688
2018-02-23T02:46:05.139Z,100700
2018-02-23T02:47:10.602Z,100697
2018-02-23T02:48:16.095Z,100688
2018-02-23T02:49:21.848Z,100700
2018-02-23T02:50:27.022Z,100688
2018-02-23T02:51:32.630Z,100697
2018-02-23T02:52:37.574Z,100694
2018-02-23T02:53:43.035Z,100694
2018-02-23T02:54:48.133Z,100682
2018-02-23T02:55:53.613Z,100685
2018-02-23T02:56:59.079Z,100694
2018-02-23T02:58:04.513Z,100688
2018-02-23T02:59:10.001Z,100682
2018-02-23T03:00:15.490Z,100685
2018-02-23T03:01:21.228Z,100700
2018-02-23T03:02:26.713Z,100694
2018-02-23T03:03:32.059Z,100697
2018-02-23T03:04:37.533Z,100688
2018-02-23T03:05:42.724Z,100694
2018-02-23T03:06:48.442Z,100694
2018-02-23T03:07:53.632Z,100685
2018-02-23T03:08:58.556Z,100682
2018-02-23T03:10:03.463Z,100691
2018-02-23T03:11:08.662Z,100682
2018-02-23T03:12:14.178Z,100676
2018-02-23T03:13:19.916Z,100688
2018-02-23T03:14:25.139Z,100694
2018-02-23T03:15:30.160Z,100685
2018-02-23T03:16:35.652Z,100688
2018-02-23T03:17:40.284Z,100688
2018-02-23T03:18:45.936Z,100679
2018-02-23T03:19:51.131Z,100682
2018-02-23T03:20:56.593Z,100694
2018-02-23T03:22:02.400Z,100688
2018-02-23T03:23:07.595Z,100694
2018-02-23T03:24:12.855Z,100673
2018-02-23T03:25:18.029Z,100691
2018-02-23T03:26:23.536Z,100697
2018-02-23T03:27:28.700Z,100676
2018-02-23T03:28:33.885Z,100685
2018-02-23T03:29:39.368Z,100688
2018-02-23T03:30:45.183Z,100691
2018-02-23T03:31:50.687Z,100685
2018-02-23T03:32:55.872Z,100697
2018-02-23T03:34:01.280Z,100700
2018-02-23T03:35:06.508Z,100688
2018-02-23T03:36:11.694Z,100682
2018-02-23T03:37:17.465Z,100697
2018-02-23T03:38:22.957Z,100688
2018-02-23T03:39:28.928Z,100685
2018-02-23T03:40:34.174Z,100688
2018-02-23T03:41:39.643Z,100685
2018-02-23T03:42:45.202Z,100688
2018-02-23T03:43:50.682Z,100685
2018-02-23T03:44:56.152Z,100673
2018-02-23T03:46:01.959Z,100694
2018-02-23T03:47:07.160Z,100682
2018-02-23T03:48:12.642Z,100688
2018-02-23T03:49:18.401Z,100688
2018-02-23T03:50:23.900Z,100679
2018-02-23T03:51:29.686Z,100682
2018-02-23T03:52:35.183Z,100691
2018-02-23T03:53:40.350Z,100676
2018-02-23T03:54:46.313Z,100676
2018-02-23T03:55:51.520Z,100679
2018-02-23T03:56:56.724Z,100682
2018-02-23T03:58:02.512Z,100676
2018-02-23T03:59:07.708Z,100679
2018-02-23T04:00:12.916Z,100676
2018-02-23T04:01:18.640Z,100676
2018-02-23T04:02:23.847Z,100676
2018-02-23T04:03:29.714Z,100699
2018-02-23T04:04:35.210Z,100697
2018-02-23T04:05:40.405Z,100697
2018-02-23T04:06:45.879Z,100691
2018-02-23T04:07:51.364Z,100691
2018-02-23T04:08:56.857Z,100697
2018-02-23T04:10:01.831Z,100694
2018-02-23T04:11:07.321Z,100705
2018-02-23T04:12:12.806Z,100685
2018-02-23T04:13:18.319Z,100697
2018-02-23T04:14:23.828Z,100699
2018-02-23T04:15:28.796Z,100685
2018-02-23T04:16:34.304Z,100691
2018-02-23T04:17:39.546Z,100691
2018-02-23T04:18:45.483Z,100697
2018-02-23T04:19:51.017Z,100697
2018-02-23T04:20:55.956Z,100705
2018-02-23T04:22:01.416Z,100699
2018-02-23T04:23:06.335Z,100702
2018-02-23T04:24:11.812Z,100699
2018-02-23T04:25:17.537Z,100708
2018-02-23T04:26:22.996Z,100694
2018-02-23T04:27:28.720Z,100691
2018-02-23T04:28:34.228Z,100697
2018-02-23T04:29:39.509Z,100702
2018-02-23T04:30:45.111Z,100708
2018-02-23T04:31:50.290Z,100699
2018-02-23T04:32:55.772Z,100702
2018-02-23T04:34:01.576Z,100702
2018-02-23T04:35:06.764Z,100705
2018-02-23T04:36:12.265Z,100708
2018-02-23T04:37:17.979Z,100694
2018-02-23T04:38:23.473Z,100697
2018-02-23T04:39:29.203Z,100694
2018-02-23T04:40:34.527Z,100702
2018-02-23T04:41:40.117Z,100702
2018-02-23T04:42:46.039Z,100699
2018-02-23T04:43:51.237Z,100708
2018-02-23T04:44:56.144Z,100708
2018-02-23T04:46:01.943Z,100711
2018-02-23T04:47:06.850Z,100705
2018-02-23T04:48:12.361Z,100714
2018-02-23T04:49:18.172Z,100711
2018-02-23T04:50:23.362Z,100699
2018-02-23T04:51:28.806Z,100717
2018-02-23T04:52:34.272Z,100705
2018-02-23T04:53:39.479Z,100717
2018-02-23T04:54:45.132Z,100711
2018-02-23T04:55:50.326Z,100711
2018-02-23T04:56:55.823Z,100705
2018-02-23T04:58:01.412Z,100714
2018-02-23T04:59:06.623Z,100714
2018-02-23T05:00:12.097Z,100717
2018-02-23T05:01:17.829Z,100720
2018-02-23T05:02:23.337Z,100723
2018-02-23T05:03:29.017Z,100731
2018-02-23T05:04:34.181Z,100717
2018-02-23T05:05:39.661Z,100723
2018-02-23T05:06:45.019Z,100723
2018-02-23T05:07:50.486Z,100717
2018-02-23T05:08:55.948Z,100726
2018-02-23T05:10:01.311Z,100720
2018-02-23T05:11:06.209Z,100720
2018-02-23T05:12:11.419Z,100728
2018-02-23T05:13:17.155Z,100731
2018-02-23T05:14:22.042Z,100731
2018-02-23T05:15:27.464Z,100737
2018-02-23T05:16:33.005Z,100734
2018-02-23T05:17:38.277Z,100734
2018-02-23T05:18:43.652Z,100737
2018-02-23T05:19:49.124Z,100746
2018-02-23T05:20:54.609Z,100740
2018-02-23T05:22:00.058Z,100755
2018-02-23T05:23:04.987Z,100749
2018-02-23T05:24:10.485Z,100740
2018-02-23T05:25:15.745Z,100752
2018-02-23T05:26:20.670Z,100746
2018-02-23T05:27:26.205Z,100737
2018-02-23T05:28:31.412Z,100743
2018-02-23T05:29:36.897Z,100746
2018-02-23T05:30:42.726Z,100752
2018-02-23T05:31:47.896Z,100740
2018-02-23T05:32:53.386Z,100749
2018-02-23T05:33:59.427Z,100743
2018-02-23T05:35:04.321Z,100757
2018-02-23T05:36:09.530Z,100734
2018-02-23T05:37:14.402Z,100749
2018-02-23T05:38:19.614Z,100752
2018-02-23T05:39:25.199Z,100743
2018-02-23T05:40:30.684Z,100746
2018-02-23T05:41:36.184Z,100740
2018-02-23T05:42:41.840Z,100740
2018-02-23T05:43:47.317Z,100746
2018-02-23T05:44:52.797Z,100737
2018-02-23T05:45:58.261Z,100728
2018-02-23T05:47:03.664Z,100734
2018-02-23T05:48:09.133Z,100743
2018-02-23T05:49:14.925Z,100746
2018-02-23T05:50:20.119Z,100740
2018-02-23T05:51:26.331Z,100743
2018-02-23T05:52:31.806Z,100737
2018-02-23T05:53:37.271Z,100740
2018-02-23T05:54:42.947Z,100749
2018-02-23T05:55:47.849Z,100737
2018-02-23T05:56:53.334Z,100746
2018-02-23T05:57:59.142Z,100740
2018-02-23T05:59:04.684Z,100746
2018-02-23T06:00:09.884Z,100743
2018-02-23T06:01:15.647Z,100746
2018-02-23T06:02:20.829Z,100737
2018-02-23T06:03:26.855Z,100755
2018-02-23T06:04:32.050Z,100752
2018-02-23T06:05:37.541Z,100752
2018-02-23T06:06:43.296Z,100757
2018-02-23T06:07:48.475Z,100757
2018-02-23T06:08:53.365Z,100757
2018-02-23T06:09:58.988Z,100755
2018-02-23T06:11:03.951Z,100752
2018-02-23T06:12:09.476Z,100760
2018-02-23T06:13:14.639Z,100760
2018-02-23T06:14:20.140Z,100757
2018-02-23T06:15:40.427Z,100763
2018-02-23T06:16:45.903Z,100769
2018-02-23T06:17:51.120Z,100766
2018-02-23T06:18:56.981Z,100763
2018-02-23T06:20:02.457Z,100769
2018-02-23T06:21:07.689Z,100763
2018-02-23T06:22:13.467Z,100760
2018-02-23T06:23:18.972Z,100763
2018-02-23T06:24:39.378Z,100769
2018-02-23T06:25:44.586Z,100769
2018-02-23T06:26:49.751Z,100781
2018-02-23T06:27:55.699Z,100775
2018-02-23T06:29:00.904Z,100778
2018-02-23T06:30:06.125Z,100781
2018-02-23T06:31:11.761Z,100775
2018-02-23T06:32:17.258Z,100781
2018-02-23T06:33:22.451Z,100781
2018-02-23T06:34:27.624Z,100781
2018-02-23T06:35:33.182Z,100786
2018-02-23T06:36:38.737Z,100781
2018-02-23T06:37:44.190Z,100786
2018-02-23T06:38:49.395Z,100792
2018-02-23T06:39:55.208Z,100789
2018-02-23T06:40:59.840Z,100786
2018-02-23T06:42:05.346Z,100795
2018-02-23T06:43:11.268Z,100792
2018-02-23T06:44:16.744Z,100789
2018-02-23T06:45:22.234Z,100789
2018-02-23T06:46:28.115Z,100786
2018-02-23T06:47:33.574Z,100786
2018-02-23T06:48:39.039Z,100797
2018-02-23T06:49:44.249Z,100797
2018-02-23T06:50:49.734Z,100792
2018-02-23T06:51:55.507Z,100797
2018-02-23T06:53:00.971Z,100786
2018-02-23T06:54:05.602Z,100795
2018-02-23T06:55:11.169Z,100800
2018-02-23T06:56:16.676Z,100792
2018-02-23T06:57:22.158Z,100803
2018-02-23T06:58:27.961Z,100800
2018-02-23T06:59:32.904Z,100800
2018-02-23T07:00:38.476Z,100795
2018-02-23T07:01:43.933Z,100789
2018-02-23T07:02:49.398Z,100795
2018-02-23T07:03:55.197Z,100797
2018-02-23T07:05:00.667Z,100792
2018-02-23T07:06:06.135Z,100789
2018-02-23T07:07:12.154Z,100792
2018-02-23T07:08:17.670Z,100786
2018-02-23T07:09:22.854Z,100795
2018-02-23T07:10:43.218Z,100795
2018-02-23T07:11:48.467Z,100800
2018-02-23T07:12:53.937Z,100800
2018-02-23T07:13:59.413Z,100797
2018-02-23T07:15:04.921Z,100781
2018-02-23T07:16:10.380Z,100786
2018-02-23T07:17:15.845Z,100784
2018-02-23T07:18:21.029Z,100787
2018-02-23T07:19:27.298Z,100784
2018-02-23T07:20:32.765Z,100786
2018-02-23T07:21:38.509Z,100789
2018-02-23T07:22:43.706Z,100792
2018-02-23T07:23:48.888Z,100784
2018-02-23T07:24:54.375Z,100786
2018-02-23T07:25:59.564Z,100795
2018-02-23T07:27:04.465Z,100795
2018-02-23T07:28:10.209Z,100795
2018-02-23T07:29:15.684Z,100789
2018-02-23T07:30:20.904Z,100792
2018-02-23T07:31:26.834Z,100792
2018-02-23T07:32:32.066Z,100800
2018-02-23T07:33:37.803Z,100800
2018-02-23T07:34:42.708Z,100797
2018-02-23T07:35:47.898Z,100795
2018-02-23T07:36:53.634Z,100784
2018-02-23T07:37:58.806Z,100789
2018-02-23T07:39:03.738Z,100797
2018-02-23T07:40:09.266Z,100792
2018-02-23T07:41:14.517Z,100789
2018-02-23T07:42:20.035Z,100797
2018-02-23T07:43:40.227Z,100797
2018-02-23T07:44:45.700Z,100795
2018-02-23T07:45:50.661Z,100803
2018-02-23T07:46:55.852Z,100795
2018-02-23T07:48:01.090Z,100797
2018-02-23T07:49:06.004Z,100797
2018-02-23T07:50:11.485Z,100795
2018-02-23T07:51:16.881Z,100800
2018-02-23T07:52:22.579Z,100787
2018-02-23T07:53:28.121Z,100789
2018-02-23T07:54:33.820Z,100787
2018-02-23T07:55:38.716Z,100792
2018-02-23T07:56:44.188Z,100789
2018-02-23T07:59:09.567Z,100784
2018-02-23T08:00:15.054Z,100790
2018-02-23T08:01:20.826Z,100787
2018-02-23T08:02:26.037Z,100797
2018-02-23T08:03:31.480Z,100787
2018-02-23T08:04:36.941Z,100795
2018-02-23T08:05:42.113Z,100792
2018-02-23T08:06:47.552Z,100792
2018-02-23T08:07:52.804Z,100792
2018-02-23T08:08:58.025Z,100790
2018-02-23T08:10:03.561Z,100800
2018-02-23T08:11:09.052Z,100795
2018-02-23T08:12:14.303Z,100797
2018-02-23T08:13:19.480Z,100803
2018-02-23T08:14:24.115Z,100800
2018-02-23T08:15:29.260Z,100795
2018-02-23T08:16:34.178Z,100800
2018-02-23T08:17:39.394Z,100797
2018-02-23T08:18:45.331Z,100797
2018-02-23T08:19:50.801Z,100800
2018-02-23T08:20:56.285Z,100806
2018-02-23T08:22:01.739Z,100809
2018-02-23T08:23:06.669Z,100800
2018-02-23T08:24:12.191Z,100815
2018-02-23T08:25:17.078Z,100803
2018-02-23T08:26:22.589Z,100809
2018-02-23T08:27:28.638Z,100803
2018-02-23T08:28:34.157Z,100809
2018-02-23T08:29:39.379Z,100795
2018-02-23T08:30:44.601Z,100800
2018-02-23T08:31:49.816Z,100806
2018-02-23T08:32:54.745Z,100806
2018-02-23T08:34:00.461Z,100812
2018-02-23T08:35:04.826Z,100806
2018-02-23T08:36:10.222Z,100812
2018-02-23T08:37:15.365Z,100809
2018-02-23T08:38:20.839Z,100800
2018-02-23T08:39:27.177Z,100806
2018-02-23T08:40:32.663Z,100812
2018-02-23T08:41:38.441Z,100806
2018-02-23T08:42:43.430Z,100815
2018-02-23T08:43:48.660Z,100823
2018-02-23T08:44:54.141Z,100823
2018-02-23T08:45:59.518Z,100821
2018-02-23T08:47:04.142Z,100823
2018-02-23T08:48:09.642Z,100826
2018-02-23T08:49:15.128Z,100818
2018-02-23T08:50:20.613Z,100821
2018-02-23T08:51:26.807Z,100821
2018-02-23T08:52:32.005Z,100821
2018-02-23T08:53:36.923Z,100832
2018-02-23T08:54:42.406Z,100832
2018-02-23T08:55:47.715Z,100829
2018-02-23T08:56:52.947Z,100832
2018-02-23T08:57:58.701Z,100823
2018-02-23T08:59:03.901Z,100835
2018-02-23T09:00:09.135Z,100832
2018-02-23T09:01:14.606Z,100835
2018-02-23T09:02:20.070Z,100829
2018-02-23T09:03:25.828Z,100829
2018-02-23T09:04:31.016Z,100821
2018-02-23T09:05:35.942Z,100818
2018-02-23T09:06:40.871Z,100826
2018-02-23T09:07:46.038Z,100826
2018-02-23T09:08:51.291Z,100815
2018-02-23T09:09:56.480Z,100832
2018-02-23T09:11:01.097Z,100835
2018-02-23T09:12:06.591Z,100821
2018-02-23T09:13:12.332Z,100826
2018-02-23T09:14:17.533Z,100823
2018-02-23T09:15:23.079Z,100829
2018-02-23T09:16:43.501Z,100824
2018-02-23T09:17:48.959Z,100829
2018-02-23T09:18:54.720Z,100829
2018-02-23T09:20:00.307Z,100826
2018-02-23T09:21:05.509Z,100824
2018-02-23T09:22:10.939Z,100821
2018-02-23T09:23:16.142Z,100829
2018-02-23T09:24:21.639Z,100812
2018-02-23T09:25:27.601Z,100821
2018-02-23T09:26:33.182Z,100815
2018-02-23T09:27:39.170Z,100824
2018-02-23T09:28:44.697Z,100818
2018-02-23T09:29:50.202Z,100832
2018-02-23T09:30:55.709Z,100818
2018-02-23T09:32:00.944Z,100838
2018-02-23T09:33:06.620Z,100812
2018-02-23T09:34:11.574Z,100821
2018-02-23T09:35:16.972Z,100824
2018-02-23T09:36:22.163Z,100812
2018-02-23T09:37:27.610Z,100806
2018-02-23T09:38:32.806Z,100827
2018-02-23T09:39:38.267Z,100821
2018-02-23T09:40:43.467Z,100829
2018-02-23T09:41:48.381Z,100818
2018-02-23T09:42:53.877Z,100818
2018-02-23T09:43:59.364Z,100821
2018-02-23T09:45:04.831Z,100827
2018-02-23T09:46:10.544Z,100818
2018-02-23T09:47:15.743Z,100827
2018-02-23T09:48:20.940Z,100824
2018-02-23T09:49:26.912Z,100815
2018-02-23T09:50:32.406Z,100827
2018-02-23T09:51:38.176Z,100824
2018-02-23T09:52:42.834Z,100827
2018-02-23T09:53:48.337Z,100827
2018-02-23T09:54:53.940Z,100824
2018-02-23T09:55:58.588Z,100824
2018-02-23T09:57:04.084Z,100815
2018-02-23T09:58:09.538Z,100829
2018-02-23T09:59:14.484Z,100824
2018-02-23T10:00:20.181Z,100815
2018-02-23T10:01:25.947Z,100827
2018-02-23T10:02:31.418Z,100824
2018-02-23T10:03:37.390Z,100821
2018-02-23T10:04:42.579Z,100830
2018-02-23T10:05:48.070Z,100824
2018-02-23T10:06:53.601Z,100830
2018-02-23T10:07:58.795Z,100830
2018-02-23T10:09:03.701Z,100835
2018-02-23T10:10:09.468Z,100824
2018-02-23T10:11:14.094Z,100824
2018-02-23T10:12:19.502Z,100830
2018-02-23T10:13:24.978Z,100821
2018-02-23T10:14:30.434Z,100818
2018-02-23T10:15:35.026Z,100821
2018-02-23T10:16:39.642Z,100818
2018-02-23T10:17:45.111Z,100815
2018-02-23T10:18:50.553Z,100827
2018-02-23T10:19:55.462Z,100821
2018-02-23T10:21:00.645Z,100815
2018-02-23T10:22:05.624Z,100824
2018-02-23T10:23:10.817Z,100824
2018-02-23T10:24:16.294Z,100833
2018-02-23T10:25:22.186Z,100821
2018-02-23T10:26:27.683Z,100815
2018-02-23T10:27:33.447Z,100821
2018-02-23T10:28:39.144Z,100818
2018-02-23T10:29:44.645Z,100824
2018-02-23T10:30:50.520Z,100812
2018-02-23T10:31:56.020Z,100818
2018-02-23T10:33:01.238Z,100815
2018-02-23T10:34:06.777Z,100806
2018-02-23T10:35:12.456Z,100815
2018-02-23T10:36:17.628Z,100809
2018-02-23T10:37:23.338Z,100807
2018-02-23T10:38:28.532Z,100804
2018-02-23T10:39:33.959Z,100806
2018-02-23T10:40:39.468Z,100804
2018-02-23T10:41:44.674Z,100801
2018-02-23T10:42:50.316Z,100801
2018-02-23T10:43:55.806Z,100801
2018-02-23T10:45:01.298Z,100821
2018-02-23T10:46:06.751Z,100804
2018-02-23T10:47:12.274Z,100807
2018-02-23T10:48:17.854Z,100804
2018-02-23T10:49:23.306Z,100810
2018-02-23T10:50:28.258Z,100801
2018-02-23T10:51:33.789Z,100801
2018-02-23T10:52:39.270Z,100801
2018-02-23T10:53:43.658Z,100796
2018-02-23T10:54:49.397Z,100798
2018-02-23T10:55:55.098Z,100812
2018-02-23T10:57:00.577Z,100804
2018-02-23T10:58:05.746Z,100796
2018-02-23T10:59:10.803Z,100798
2018-02-23T11:00:16.022Z,100801
2018-02-23T11:01:21.407Z,100790
2018-02-23T11:02:26.916Z,100801
2018-02-23T11:03:32.724Z,100796
2018-02-23T11:04:38.134Z,100801
2018-02-23T11:05:43.342Z,100798
2018-02-23T11:06:48.763Z,100796
2018-02-23T11:07:53.700Z,100796
2018-02-23T11:08:59.176Z,100798
2018-02-23T11:10:04.664Z,100798
2018-02-23T11:11:10.132Z,100790
2018-02-23T11:12:15.071Z,100798
2018-02-23T11:13:21.171Z,100787
2018-02-23T11:14:26.856Z,100793
2018-02-23T11:15:32.762Z,100798
2018-02-23T11:16:38.230Z,100801
2018-02-23T11:17:43.707Z,100798
2018-02-23T11:18:49.511Z,100787
2018-02-23T11:19:54.999Z,100793
2018-02-23T11:21:00.173Z,100793
2018-02-23T11:22:05.642Z,100798
2018-02-23T11:23:10.848Z,100785
2018-02-23T11:24:15.729Z,100798
2018-02-23T11:25:21.509Z,100793
2018-02-23T11:26:27.012Z,100785
2018-02-23T11:27:32.736Z,100787
2018-02-23T11:28:38.217Z,100790
2018-02-23T11:29:43.126Z,100773
2018-02-23T11:30:48.862Z,100779
2018-02-23T11:31:54.047Z,100782
2018-02-23T11:32:58.994Z,100796
2018-02-23T11:34:04.639Z,100788
2018-02-23T11:35:09.826Z,100776
2018-02-23T11:36:15.518Z,100785
2018-02-23T11:37:20.752Z,100779
2018-02-23T11:38:25.981Z,100779
2018-02-23T11:39:31.459Z,100785
2018-02-23T11:40:36.969Z,100776
2018-02-23T11:41:42.480Z,100779
2018-02-23T11:42:47.942Z,100793
2018-02-23T11:43:52.856Z,100770
2018-02-23T11:44:58.522Z,100776
2018-02-23T11:46:04.296Z,100773
2018-02-23T11:47:09.768Z,100779
2018-02-23T11:48:14.971Z,100770
2018-02-23T11:49:20.416Z,100776
2018-02-23T11:50:25.709Z,100779
2018-02-23T11:51:31.732Z,100776
2018-02-23T11:52:36.936Z,100764
2018-02-23T11:53:42.268Z,100773
2018-02-23T11:54:48.086Z,100767
2018-02-23T11:55:53.625Z,100770
2018-02-23T11:56:58.537Z,100764
2018-02-23T11:58:04.236Z,100767
2018-02-23T11:59:09.748Z,100767
2018-02-23T12:00:14.949Z,100779
2018-02-23T12:01:20.673Z,100770
2018-02-23T12:02:25.330Z,100770
2018-02-23T12:03:31.194Z,100767
2018-02-23T12:04:36.136Z,100770
2018-02-23T12:05:41.593Z,100776
2018-02-23T12:06:47.321Z,100767
2018-02-23T12:07:52.804Z,100758
2018-02-23T12:08:58.321Z,100761
2018-02-23T12:10:04.051Z,100756
2018-02-23T12:11:08.973Z,100773
2018-02-23T12:12:14.313Z,100758
2018-02-23T12:13:20.146Z,100764
2018-02-23T12:14:25.332Z,100758
2018-02-23T12:15:30.981Z,100753
2018-02-23T12:16:36.191Z,100750
2018-02-23T12:17:41.103Z,100758
2018-02-23T12:18:46.262Z,100758
2018-02-23T12:19:51.480Z,100764
2018-02-23T12:20:56.982Z,100764
2018-02-23T12:22:02.467Z,100767
2018-02-23T12:23:07.959Z,100770
2018-02-23T12:24:13.462Z,100764
2018-02-23T12:25:19.178Z,100758
2018-02-23T12:26:24.675Z,100773
2018-02-23T12:27:30.256Z,100764
2018-02-23T12:28:35.749Z,100761
2018-02-23T12:29:41.234Z,100753
2018-02-23T12:30:46.719Z,100767
2018-02-23T12:31:51.935Z,100770
2018-02-23T12:32:57.635Z,100764
2018-02-23T12:34:03.484Z,100767
2018-02-23T12:35:08.991Z,100761
2018-02-23T12:36:14.440Z,100761
2018-02-23T12:37:19.908Z,100755
2018-02-23T12:38:24.847Z,100761
2018-02-23T12:39:30.569Z,100755
2018-02-23T12:40:36.032Z,100764
2018-02-23T12:41:41.515Z,100738
2018-02-23T12:42:47.248Z,100752
2018-02-23T12:43:52.454Z,100755
2018-02-23T12:44:57.934Z,100747
2018-02-23T12:46:03.206Z,100750
2018-02-23T12:47:08.408Z,100752
2018-02-23T12:48:13.600Z,100755
2018-02-23T12:49:19.150Z,100755
2018-02-23T12:50:24.359Z,100752
2018-02-23T12:51:29.992Z,100749
2018-02-23T12:52:35.244Z,100747
2018-02-23T12:53:39.884Z,100747
2018-02-23T12:54:45.034Z,100735
2018-02-23T12:55:50.554Z,100741
2018-02-23T12:56:56.068Z,100729
2018-02-23T12:58:00.947Z,100738
2018-02-23T12:59:06.119Z,100729
2018-02-23T13:00:11.622Z,100723
2018-02-23T13:01:17.371Z,100735
2018-02-23T13:02:23.215Z,100732
2018-02-23T13:03:28.978Z,100735
2018-02-23T13:04:34.453Z,100738
2018-02-23T13:05:39.659Z,100732
2018-02-23T13:06:44.920Z,100726
2018-02-23T13:07:50.421Z,100729
2018-02-23T13:08:55.333Z,100738
2018-02-23T13:10:00.530Z,100735
2018-02-23T13:11:05.747Z,100735
2018-02-23T13:12:11.221Z,100729
2018-02-23T13:13:16.940Z,100717
2018-02-23T13:14:22.123Z,100729
2018-02-23T13:15:28.086Z,100726
2018-02-23T13:16:33.568Z,100735
2018-02-23T13:17:39.058Z,100720
2018-02-23T13:18:44.789Z,100723
2018-02-23T13:19:50.000Z,100726
2018-02-23T13:20:55.502Z,100720
2018-02-23T13:22:00.867Z,100723
2018-02-23T13:23:05.992Z,100723
2018-02-23T13:24:11.480Z,100723
2018-02-23T13:25:16.977Z,100717
2018-02-23T13:26:22.476Z,100723
2018-02-23T13:27:28.168Z,100720
2018-02-23T13:28:33.104Z,100723
2018-02-23T13:29:38.576Z,100714
2018-02-23T13:30:44.313Z,100720
2018-02-23T13:31:49.508Z,100714
2018-02-23T13:32:55.149Z,100711
2018-02-23T13:34:00.595Z,100717
2018-02-23T13:35:05.442Z,100714
2018-02-23T13:36:10.926Z,100717
2018-02-23T13:37:16.403Z,100720
2018-02-23T13:38:21.879Z,100709